Observations for ALBENGA, Italy (LIMG)

LIMG 251750Z VRB02KT CAVOK 28/16 Q1016  
LIMG 251550Z 07005KT CAVOK 30/15 Q1016  
LIMG 251350Z 10008KT CAVOK 30/17 Q1016  
LIMG 251250Z 13006KT 9999 FEW035 31/17 Q1016
LIMG 251150Z 12009KT 9999 FEW045 32/15 Q1016
LIMG 251050Z 13007KT 9999 FEW035 32/14 Q1016
LIMG 250950Z 11007KT CAVOK 32/14 Q1017  
LIMG 250850Z 06006KT CAVOK 30/16 Q1017  
LIMG 250750Z 32003KT CAVOK 27/14 Q1017  
LIMG 250650Z 00000KT CAVOK 23/16 Q1017  
LIMG 250600Z 28004KT CAVOK 21/14 Q1017